Hopewell Township, New Jersey
Current Conditions -  °F | °C
As of 9:53 PM on Thursday 18 Dec 2014 (Local Time) from KTTN Reporting Station
Overcast Overcast  
Wind Chill: 31°   Ceiling: 3300
Heat Index: 36°   Visibility: 10mi
Dew Point: 24°   Wind: 6mph
Humidity: 62%   Direction: 270°W
Pressure: 30.01"   Gusts: NA
Location:  40.3975°N, 74.7746°W
Report Text: KTTN 190253Z AUTO 27005KT 10SM OVC033 02/M04 A3001 RMK AO2 SLP157 T00221044 50004
Loading
Personal Weather Stations






























Interactive Weather Map New forecast layout! Learn more

10-Day Weather Forecast

Advertisements
Track Severe Weather on mobile